createdAt,value
2019-04-01T00:01:54.854Z,5.34
2019-04-01T00:04:25.713Z,5.42
2019-04-01T00:06:56.526Z,5.35
2019-04-01T00:09:27.306Z,5.43
2019-04-01T00:11:58.604Z,5.46
2019-04-01T00:14:29.081Z,5.40
2019-04-01T00:16:59.778Z,5.44
2019-04-01T00:19:30.242Z,5.38
2019-04-01T00:22:00.633Z,5.31
2019-04-01T00:24:31.372Z,5.30
2019-04-01T00:27:01.934Z,5.26
2019-04-01T00:29:32.772Z,5.18
2019-04-01T00:32:03.613Z,5.22
2019-04-01T00:34:34.474Z,5.22
2019-04-01T00:37:05.211Z,5.21
2019-04-01T00:39:35.966Z,5.10
2019-04-01T00:42:14.192Z,5.12
2019-04-01T00:44:45.010Z,5.14
2019-04-01T00:47:15.724Z,5.06
2019-04-01T00:49:46.500Z,5.14
2019-04-01T00:52:16.906Z,5.10
2019-04-01T00:54:47.784Z,5.12
2019-04-01T00:57:18.598Z,5.05
2019-04-01T00:59:49.406Z,5.01
2019-04-01T01:02:20.294Z,5.08
2019-04-01T01:04:50.794Z,5.12
2019-04-01T01:07:21.673Z,5.10
2019-04-01T01:09:52.527Z,5.06
2019-04-01T01:12:23.444Z,5.00
2019-04-01T01:14:54.378Z,4.93
2019-04-01T01:17:25.216Z,4.94
2019-04-01T01:19:55.642Z,4.94
2019-04-01T01:22:26.658Z,4.86
2019-04-01T01:24:57.626Z,4.86
2019-04-01T01:27:32.920Z,4.89
2019-04-01T01:30:05.055Z,4.82
2019-04-01T01:32:35.550Z,4.92
2019-04-01T01:35:06.756Z,4.86
2019-04-01T01:37:37.734Z,4.86
2019-04-01T01:40:08.854Z,4.80
2019-04-01T01:42:39.644Z,4.80
2019-04-01T01:45:10.551Z,4.79
2019-04-01T01:47:42.784Z,4.78
2019-04-01T01:50:13.282Z,4.78
2019-04-01T01:52:44.194Z,4.84
2019-04-01T01:55:15.038Z,4.81
2019-04-01T01:57:45.891Z,4.70
2019-04-01T02:00:16.924Z,4.72
2019-04-01T02:02:47.833Z,4.76
2019-04-01T02:05:18.778Z,4.70
2019-04-01T02:07:49.580Z,4.60
2019-04-01T02:10:20.300Z,4.68
2019-04-01T02:12:51.174Z,4.63
2019-04-01T02:15:22.084Z,4.66
2019-04-01T02:17:52.840Z,4.61
2019-04-01T02:20:23.560Z,4.68
2019-04-01T02:22:54.314Z,4.66
2019-04-01T02:25:25.044Z,4.70
2019-04-01T02:27:55.795Z,4.60
2019-04-01T02:30:26.605Z,4.64
2019-04-01T02:32:57.436Z,4.55
2019-04-01T02:35:28.193Z,4.61
2019-04-01T02:37:59.033Z,4.54
2019-04-01T02:40:29.756Z,4.56
2019-04-01T02:43:00.575Z,4.59
2019-04-01T02:45:31.293Z,4.46
2019-04-01T02:48:02.177Z,4.46
2019-04-01T02:50:33.113Z,4.46
2019-04-01T02:53:04.056Z,4.50
2019-04-01T02:55:34.866Z,4.48
2019-04-01T02:58:05.713Z,4.43
2019-04-01T03:00:36.546Z,4.48
2019-04-01T03:03:06.956Z,4.54
2019-04-01T03:05:37.803Z,4.44
2019-04-01T03:08:08.655Z,4.37
2019-04-01T03:10:39.504Z,4.36
2019-04-01T03:13:10.230Z,4.34
2019-04-01T03:15:40.690Z,4.41
2019-04-01T03:18:11.582Z,4.26
2019-04-01T03:20:42.384Z,4.32
2019-04-01T03:23:13.177Z,4.32
2019-04-01T03:25:43.602Z,4.30
2019-04-01T03:28:14.058Z,4.26
2019-04-01T03:30:44.630Z,4.22
2019-04-01T03:33:15.297Z,4.32
2019-04-01T03:35:46.098Z,4.30
2019-04-01T03:38:16.866Z,4.26
2019-04-01T03:40:47.591Z,4.28
2019-04-01T03:43:18.573Z,4.23
2019-04-01T03:45:49.377Z,4.18
2019-04-01T03:48:20.226Z,4.18
2019-04-01T03:50:51.040Z,4.16
2019-04-01T03:53:21.515Z,4.24
2019-04-01T03:55:52.380Z,4.22
2019-04-01T03:58:26.106Z,4.14
2019-04-01T04:00:57.012Z,4.12
2019-04-01T04:03:27.757Z,4.07
2019-04-01T04:05:58.716Z,4.02
2019-04-01T04:08:29.150Z,4.08
2019-04-01T04:10:59.933Z,4.06
2019-04-01T04:13:30.775Z,4.15
2019-04-01T04:16:01.657Z,4.12
2019-04-01T04:18:32.388Z,4.06
2019-04-01T04:21:03.247Z,4.09
2019-04-01T04:23:33.873Z,4.03
2019-04-01T04:26:04.614Z,4.02
2019-04-01T04:28:35.538Z,3.97
2019-04-01T04:31:06.291Z,4.00
2019-04-01T04:33:37.101Z,3.91
2019-04-01T04:36:08.226Z,3.91
2019-04-01T04:38:39.143Z,3.92
2019-04-01T04:41:10.077Z,3.89
2019-04-01T04:43:40.955Z,3.86
2019-04-01T04:46:11.794Z,3.88
2019-04-01T04:48:44.439Z,3.83
2019-04-01T04:51:15.508Z,3.78
2019-04-01T04:53:46.260Z,3.72
2019-04-01T04:56:17.091Z,3.82
2019-04-01T04:58:47.963Z,3.74
2019-04-01T05:01:18.341Z,3.79
2019-04-01T05:03:48.851Z,3.78
2019-04-01T05:06:19.627Z,3.82
2019-04-01T05:08:50.463Z,3.77
2019-04-01T05:11:21.183Z,3.78
2019-04-01T05:13:52.117Z,3.77
2019-04-01T05:16:22.848Z,3.77
2019-04-01T05:18:53.583Z,3.96
2019-04-01T05:21:25.061Z,4.04
2019-04-01T05:23:56.805Z,4.07
2019-04-01T05:26:28.485Z,4.10
2019-04-01T05:29:02.970Z,4.16
2019-04-01T05:31:35.654Z,4.25
2019-04-01T05:34:07.559Z,4.13
2019-04-01T05:36:38.109Z,4.31
2019-04-01T05:39:08.876Z,4.28
2019-04-01T05:41:39.347Z,4.42
2019-04-01T05:44:10.871Z,4.46
2019-04-01T05:46:41.780Z,4.42
2019-04-01T05:49:12.832Z,4.40
2019-04-01T05:51:43.988Z,4.42
2019-04-01T05:54:14.863Z,4.41
2019-04-01T05:56:45.923Z,4.38
2019-04-01T05:59:17.213Z,4.42
2019-04-01T06:01:49.274Z,4.51
2019-04-01T06:04:20.119Z,4.58
2019-04-01T06:06:50.949Z,4.48
2019-04-01T06:09:22.503Z,4.58
2019-04-01T06:11:53.869Z,4.51
2019-04-01T06:14:24.719Z,4.52
2019-04-01T06:16:55.537Z,4.48
2019-04-01T06:19:26.459Z,4.44
2019-04-01T06:21:57.296Z,4.48
2019-04-01T06:24:28.096Z,4.41
2019-04-01T06:26:59.123Z,4.34
2019-04-01T06:29:30.525Z,4.34
2019-04-01T06:32:01.370Z,4.34
2019-04-01T06:34:32.239Z,4.40
2019-04-01T06:37:03.257Z,4.39
2019-04-01T06:39:33.773Z,4.55
2019-04-01T06:42:07.067Z,4.60
2019-04-01T06:44:36.745Z,4.54
2019-04-01T06:47:07.913Z,4.64
2019-04-01T06:49:38.639Z,4.74
2019-04-01T06:52:11.096Z,4.74
2019-04-01T06:54:41.863Z,4.80
2019-04-01T06:57:12.597Z,4.96
2019-04-01T06:59:43.468Z,4.91
2019-04-01T07:02:13.947Z,4.95
2019-04-01T07:04:44.817Z,5.08
2019-04-01T07:07:19.151Z,5.08
2019-04-01T07:09:50.597Z,5.17
2019-04-01T07:12:20.614Z,5.18
2019-04-01T07:14:51.562Z,5.18
2019-04-01T07:17:22.382Z,5.16
2019-04-01T07:19:53.225Z,5.20
2019-04-01T07:22:24.213Z,5.25
2019-04-01T07:24:54.984Z,5.37
2019-04-01T07:27:27.866Z,5.45
2019-04-01T07:29:58.724Z,5.42
2019-04-01T07:32:32.822Z,5.54
2019-04-01T07:35:04.457Z,5.52
2019-04-01T07:37:36.742Z,5.56
2019-04-01T07:40:07.669Z,5.68
2019-04-01T07:42:38.624Z,5.76
2019-04-01T07:45:10.304Z,5.76
2019-04-01T07:47:41.212Z,5.64
2019-04-01T07:50:12.788Z,5.86
2019-04-01T07:52:43.814Z,5.75
2019-04-01T07:55:14.948Z,5.84
2019-04-01T07:57:45.708Z,5.82
2019-04-01T08:00:16.632Z,5.86
2019-04-01T08:02:49.095Z,5.88
2019-04-01T08:05:20.234Z,5.76
2019-04-01T08:07:51.076Z,5.82
2019-04-01T08:10:22.058Z,5.94
2019-04-01T08:12:52.945Z,5.98
2019-04-01T08:15:23.754Z,6.20
2019-04-01T08:17:54.649Z,6.12
2019-04-01T08:20:25.472Z,5.98
2019-04-01T08:22:56.251Z,5.94
2019-04-01T08:25:27.029Z,6.00
2019-04-01T08:27:57.595Z,6.04
2019-04-01T08:30:27.957Z,6.02
2019-04-01T08:32:58.434Z,6.05
2019-04-01T08:35:29.434Z,6.12
2019-04-01T08:38:00.277Z,6.09
2019-04-01T08:40:31.000Z,6.36
2019-04-01T08:43:01.890Z,6.46
2019-04-01T08:45:32.846Z,6.47
2019-04-01T08:48:03.562Z,6.46
2019-04-01T08:50:34.467Z,6.44
2019-04-01T08:53:05.214Z,6.45
2019-04-01T08:55:35.893Z,6.44
2019-04-01T08:58:06.728Z,6.46
2019-04-01T09:00:37.726Z,6.58
2019-04-01T09:03:08.190Z,6.67
2019-04-01T09:05:39.322Z,6.71
2019-04-01T09:08:10.139Z,6.72
2019-04-01T09:10:42.693Z,6.66
2019-04-01T09:13:14.883Z,6.78
2019-04-01T09:15:45.592Z,6.78
2019-04-01T09:18:16.138Z,6.77
2019-04-01T09:20:46.990Z,6.78
2019-04-01T09:23:17.806Z,6.91
2019-04-01T09:25:48.643Z,6.94
2019-04-01T09:28:19.470Z,6.95
2019-04-01T09:30:50.241Z,6.95
2019-04-01T09:33:20.739Z,7.00
2019-04-01T09:35:51.579Z,7.14
2019-04-01T09:38:22.427Z,7.10
2019-04-01T09:40:53.105Z,7.35
2019-04-01T09:43:23.547Z,7.38
2019-04-01T09:45:54.336Z,7.32
2019-04-01T09:48:25.175Z,7.20
2019-04-01T09:50:56.623Z,7.29
2019-04-01T09:53:27.459Z,7.38
2019-04-01T09:55:58.419Z,7.38
2019-04-01T09:58:29.221Z,7.48
2019-04-01T10:01:00.069Z,7.57
2019-04-01T10:03:30.881Z,7.46
2019-04-01T10:06:01.298Z,7.47
2019-04-01T10:08:42.050Z,7.46
2019-04-01T10:11:04.525Z,7.54
2019-04-01T10:13:35.253Z,7.54
2019-04-01T10:16:06.215Z,7.66
2019-04-01T10:18:37.139Z,7.60
2019-04-01T10:21:08.090Z,7.73
2019-04-01T10:23:38.990Z,7.68
2019-04-01T10:26:09.886Z,7.83
2019-04-01T10:28:40.625Z,7.76
2019-04-01T10:31:11.625Z,7.76
2019-04-01T10:33:42.357Z,7.76
2019-04-01T10:36:13.087Z,7.86
2019-04-01T10:38:46.676Z,7.82
2019-04-01T10:41:16.408Z,7.82
2019-04-01T10:43:47.172Z,7.90
2019-04-01T10:46:17.892Z,8.00
2019-04-01T10:48:48.719Z,8.03
2019-04-01T10:51:19.541Z,8.05
2019-04-01T10:53:50.422Z,8.16
2019-04-01T10:56:21.466Z,8.20
2019-04-01T10:58:52.296Z,8.19
2019-04-01T11:01:23.280Z,8.16
2019-04-01T11:03:54.161Z,8.24
2019-04-01T11:06:25.209Z,8.34
2019-04-01T11:08:56.158Z,8.38
2019-04-01T11:11:27.367Z,8.36
2019-04-01T11:13:58.551Z,8.26
2019-04-01T11:16:31.741Z,8.38
2019-04-01T11:19:01.578Z,8.49
2019-04-01T11:21:31.975Z,8.60
2019-04-01T11:24:02.762Z,8.65
2019-04-01T11:26:36.341Z,8.72
2019-04-01T11:29:08.060Z,8.60
2019-04-01T11:31:38.902Z,8.52
2019-04-01T11:34:09.910Z,8.65
2019-04-01T11:36:40.657Z,8.84
2019-04-01T11:39:12.765Z,8.80
2019-04-01T11:41:43.478Z,8.85
2019-04-01T11:44:14.429Z,8.88
2019-04-01T11:46:44.851Z,8.98
2019-04-01T11:49:15.813Z,9.10
2019-04-01T11:51:48.180Z,9.00
2019-04-01T11:54:19.023Z,9.02
2019-04-01T11:56:49.805Z,9.03
2019-04-01T11:59:21.161Z,9.08
2019-04-01T12:01:54.963Z,9.00
2019-04-01T12:04:25.807Z,9.01
2019-04-01T12:06:56.533Z,9.01
2019-04-01T12:09:27.904Z,9.20
2019-04-01T12:12:03.429Z,9.18
2019-04-01T12:14:34.675Z,9.24
2019-04-01T12:17:05.513Z,9.28
2019-04-01T12:19:36.247Z,9.46
2019-04-01T12:22:11.153Z,9.49
2019-04-01T12:24:42.059Z,9.52
2019-04-01T12:27:12.967Z,9.70
2019-04-01T12:29:43.830Z,9.65
2019-04-01T12:32:14.688Z,9.66
2019-04-01T12:34:47.759Z,9.62
2019-04-01T12:37:18.291Z,9.60
2019-04-01T12:39:50.853Z,9.76
2019-04-01T12:42:21.794Z,9.77
2019-04-01T12:44:52.613Z,9.85
2019-04-01T12:47:23.449Z,9.76
2019-04-01T12:49:56.785Z,9.80
2019-04-01T12:52:26.553Z,9.88
2019-04-01T12:55:00.668Z,9.84
2019-04-01T12:57:29.648Z,9.94
2019-04-01T13:00:00.480Z,10.02
2019-04-01T13:02:32.807Z,9.94
2019-04-01T13:05:03.925Z,9.93
2019-04-01T13:07:36.369Z,9.95
2019-04-01T13:10:08.020Z,9.94
2019-04-01T13:12:38.927Z,9.92
2019-04-01T13:15:10.362Z,9.98
2019-04-01T13:17:41.155Z,10.04
2019-04-01T13:20:13.904Z,10.06
2019-04-01T13:22:44.610Z,9.99
2019-04-01T13:25:15.437Z,10.08
2019-04-01T13:27:45.896Z,10.18
2019-04-01T13:30:16.882Z,10.16
2019-04-01T13:32:48.820Z,10.15
2019-04-01T13:35:19.988Z,10.24
2019-04-01T13:37:50.847Z,10.24
2019-04-01T13:40:21.651Z,10.32
2019-04-01T13:42:52.019Z,10.24
2019-04-01T13:45:22.742Z,10.24
2019-04-01T13:47:54.993Z,10.30
2019-04-01T13:50:25.758Z,10.30
2019-04-01T13:52:56.657Z,10.24
2019-04-01T13:55:27.389Z,10.28
2019-04-01T13:57:58.237Z,10.38
2019-04-01T14:00:29.093Z,10.35
2019-04-01T14:03:00.513Z,10.26
2019-04-01T14:05:31.785Z,10.24
2019-04-01T14:08:05.689Z,10.20
2019-04-01T14:10:35.114Z,10.35
2019-04-01T14:13:06.065Z,10.26
2019-04-01T14:15:37.053Z,10.33
2019-04-01T14:18:07.797Z,10.38
2019-04-01T14:20:38.296Z,10.30
2019-04-01T14:23:09.080Z,10.34
2019-04-01T14:25:39.920Z,10.37
2019-04-01T14:28:10.728Z,10.50
2019-04-01T14:30:41.856Z,10.47
2019-04-01T14:33:12.602Z,10.52
2019-04-01T14:35:45.163Z,10.66
2019-04-01T14:38:15.534Z,10.64
2019-04-01T14:40:46.131Z,10.64
2019-04-01T14:43:16.872Z,10.60
2019-04-01T14:45:47.646Z,10.66
2019-04-01T14:48:18.549Z,10.58
2019-04-01T14:50:51.530Z,10.66
2019-04-01T14:53:22.432Z,10.67
2019-04-01T14:55:53.227Z,10.69
2019-04-01T14:58:24.244Z,10.71
2019-04-01T15:00:55.412Z,10.64
2019-04-01T15:03:26.349Z,10.68
2019-04-01T15:05:57.190Z,10.72
2019-04-01T15:08:28.027Z,10.76
2019-04-01T15:10:58.830Z,10.84
2019-04-01T15:13:29.610Z,10.78
2019-04-01T15:16:00.433Z,10.68
2019-04-01T15:18:34.144Z,10.62
2019-04-01T15:21:03.761Z,10.68
2019-04-01T15:23:34.652Z,10.80
2019-04-01T15:26:05.534Z,10.68
2019-04-01T15:28:36.434Z,10.70
2019-04-01T15:31:07.196Z,10.67
2019-04-01T15:33:38.070Z,10.74
2019-04-01T15:36:09.131Z,10.66
2019-04-01T15:38:39.550Z,10.66
2019-04-01T15:41:10.310Z,10.68
2019-04-01T15:43:41.303Z,10.72
2019-04-01T15:46:12.319Z,10.70
2019-04-01T15:48:43.145Z,10.65
2019-04-01T15:51:14.019Z,10.63
2019-04-01T15:53:44.898Z,10.59
2019-04-01T15:56:15.650Z,10.60
2019-04-01T15:58:46.708Z,10.62
2019-04-01T16:01:19.048Z,10.64
2019-04-01T16:03:49.566Z,10.57
2019-04-01T16:06:20.306Z,10.60
2019-04-01T16:08:51.064Z,10.61
2019-04-01T16:11:21.843Z,10.53
2019-04-01T16:13:52.530Z,10.56
2019-04-01T16:16:23.260Z,10.62
2019-04-01T16:18:55.674Z,10.62
2019-04-01T16:21:31.320Z,10.58
2019-04-01T16:23:58.951Z,10.58
2019-04-01T16:26:29.820Z,10.58
2019-04-01T16:29:00.251Z,10.52
2019-04-01T16:31:31.044Z,10.46
2019-04-01T16:34:01.884Z,10.44
2019-04-01T16:36:32.446Z,10.46
2019-04-01T16:39:05.096Z,10.46
2019-04-01T16:41:36.826Z,10.48
2019-04-01T16:44:07.595Z,10.39
2019-04-01T16:46:38.431Z,10.43
2019-04-01T16:49:09.306Z,10.45
2019-04-01T16:51:41.416Z,10.32
2019-04-01T16:54:12.464Z,10.26
2019-04-01T16:56:43.210Z,10.31
2019-04-01T16:59:14.070Z,10.38
2019-04-01T17:01:44.974Z,10.24
2019-04-01T17:04:17.085Z,10.28
2019-04-01T17:06:48.285Z,10.25
2019-04-01T17:09:19.367Z,10.19
2019-04-01T17:11:50.096Z,10.12
2019-04-01T17:14:24.189Z,10.12
2019-04-01T17:16:57.734Z,10.16
2019-04-01T17:19:28.134Z,10.10
2019-04-01T17:21:59.076Z,10.05
2019-04-01T17:24:29.707Z,10.05
2019-04-01T17:27:06.150Z,9.98
2019-04-01T17:29:37.077Z,9.98
2019-04-01T17:32:07.865Z,9.91
2019-04-01T17:34:44.810Z,9.88
2019-04-01T17:37:15.870Z,9.82
2019-04-01T17:39:46.682Z,9.86
2019-04-01T17:42:17.703Z,9.79
2019-04-01T17:44:51.613Z,9.72
2019-04-01T17:47:22.407Z,9.72
2019-04-01T17:49:54.775Z,9.76
2019-04-01T17:52:25.706Z,9.72
2019-04-01T17:54:56.817Z,9.66
2019-04-01T17:57:27.681Z,9.64
2019-04-01T18:00:00.162Z,9.58
2019-04-01T18:02:33.705Z,9.58
2019-04-01T18:05:04.057Z,9.52
2019-04-01T18:07:36.088Z,9.54
2019-04-01T18:10:08.189Z,9.55
2019-04-01T18:12:40.805Z,9.58
2019-04-01T18:15:16.149Z,9.47
2019-04-01T18:17:47.303Z,9.50
2019-04-01T18:20:20.102Z,9.42
2019-04-01T18:22:50.794Z,9.45
2019-04-01T18:25:21.743Z,9.38
2019-04-01T18:27:52.555Z,9.36
2019-04-01T18:30:23.638Z,9.28
2019-04-01T18:32:55.375Z,9.30
2019-04-01T18:35:26.595Z,9.25
2019-04-01T18:37:57.075Z,9.20
2019-04-01T18:40:33.065Z,9.23
2019-04-01T18:43:02.030Z,9.22
2019-04-01T18:45:33.780Z,9.19
2019-04-01T18:48:04.798Z,9.10
2019-04-01T18:50:35.881Z,9.10
2019-04-01T18:53:07.352Z,9.08
2019-04-01T18:55:38.716Z,9.08
2019-04-01T18:58:09.591Z,9.10
2019-04-01T19:00:40.631Z,9.04
2019-04-01T19:03:11.528Z,9.03
2019-04-01T19:05:42.467Z,9.04
2019-04-01T19:08:13.551Z,8.94
2019-04-01T19:10:47.079Z,8.95
2019-04-01T19:13:18.040Z,8.89
2019-04-01T19:15:49.399Z,8.88
2019-04-01T19:18:20.942Z,8.89
2019-04-01T19:20:57.061Z,8.90
2019-04-01T19:23:24.468Z,8.88
2019-04-01T19:25:55.523Z,8.92
2019-04-01T19:28:26.474Z,8.82
2019-04-01T19:30:57.449Z,8.76
2019-04-01T19:33:29.952Z,8.68
2019-04-01T19:36:01.386Z,8.78
2019-04-01T19:38:32.563Z,8.63
2019-04-01T19:41:07.733Z,8.64
2019-04-01T19:43:36.545Z,8.68
2019-04-01T19:46:09.187Z,8.64
2019-04-01T19:48:40.115Z,8.60
2019-04-01T19:51:14.564Z,8.66
2019-04-01T19:53:45.615Z,8.52
2019-04-01T19:56:18.001Z,8.50
2019-04-01T19:58:48.950Z,8.43
2019-04-01T20:01:19.739Z,8.39
2019-04-01T20:03:54.100Z,8.46
2019-04-01T20:09:57.842Z,8.38
2019-04-01T20:12:28.697Z,8.35
2019-04-01T20:14:59.639Z,8.30
2019-04-01T20:17:30.760Z,8.24
2019-04-01T20:20:02.573Z,8.26
2019-04-01T20:22:34.144Z,8.18
2019-04-01T20:25:09.264Z,8.20
2019-04-01T20:27:39.748Z,8.12
2019-04-01T20:30:11.854Z,8.15
2019-04-01T20:32:42.329Z,8.17
2019-04-01T20:35:23.143Z,8.06
2019-04-01T20:37:47.730Z,7.98
2019-04-01T20:40:19.126Z,8.00
2019-04-01T20:42:50.154Z,8.00
2019-04-01T20:45:21.120Z,7.96
2019-04-01T20:47:53.762Z,7.98
2019-04-01T20:50:24.806Z,8.01
2019-04-01T20:52:55.716Z,7.86
2019-04-01T20:55:26.469Z,7.82
2019-04-01T20:57:57.385Z,7.80
2019-04-01T21:00:28.264Z,7.78
2019-04-01T21:03:01.095Z,7.70
2019-04-01T21:05:32.090Z,7.76
2019-04-01T21:08:02.771Z,7.62
2019-04-01T21:10:33.549Z,7.66
2019-04-01T21:13:06.296Z,7.58
2019-04-01T21:15:39.035Z,7.62
2019-04-01T21:18:10.040Z,7.52
2019-04-01T21:20:42.075Z,7.50
2019-04-01T21:23:12.954Z,7.51
2019-04-01T21:25:44.820Z,7.50
2019-04-01T21:28:15.718Z,7.46
2019-04-01T21:30:48.160Z,7.43
2019-04-01T21:33:19.015Z,7.52
2019-04-01T21:35:49.768Z,7.41
2019-04-01T21:38:22.178Z,7.27
2019-04-01T21:40:52.703Z,7.24
2019-04-01T21:43:23.512Z,7.33
2019-04-01T21:45:54.410Z,7.25
2019-04-01T21:48:25.286Z,7.22
2019-04-01T21:50:57.578Z,7.23
2019-04-01T21:53:28.400Z,7.24
2019-04-01T21:55:59.644Z,7.17
2019-04-01T21:58:33.594Z,7.12
2019-04-01T22:01:04.746Z,7.10
2019-04-01T22:03:35.734Z,7.06
2019-04-01T22:06:08.036Z,7.05
2019-04-01T22:08:38.887Z,7.04
2019-04-01T22:11:09.881Z,6.94
2019-04-01T22:13:40.910Z,6.93
2019-04-01T22:16:11.378Z,6.92
2019-04-01T22:18:42.990Z,6.77
2019-04-01T22:21:14.224Z,6.86
2019-04-01T22:23:45.348Z,6.78
2019-04-01T22:26:16.303Z,6.72
2019-04-01T22:28:47.252Z,6.74
2019-04-01T22:31:18.065Z,6.74
2019-04-01T22:33:48.735Z,6.71
2019-04-01T22:36:30.485Z,6.78
2019-04-01T22:38:54.606Z,6.62
2019-04-01T22:41:25.123Z,6.59
2019-04-01T22:43:56.260Z,6.58
2019-04-01T22:46:27.110Z,6.64
2019-04-01T22:48:58.073Z,6.64
2019-04-01T22:51:30.548Z,6.59
2019-04-01T22:54:02.301Z,6.55
2019-04-01T22:56:33.338Z,6.55
2019-04-01T22:59:04.032Z,6.53
2019-04-01T23:01:37.672Z,6.46
2019-04-01T23:04:09.860Z,6.44
2019-04-01T23:06:40.742Z,6.41
2019-04-01T23:09:14.590Z,6.36
2019-04-01T23:11:47.166Z,6.33
2019-04-01T23:14:18.206Z,6.33
2019-04-01T23:16:48.968Z,6.28
2019-04-01T23:19:19.900Z,6.28
2019-04-01T23:21:51.036Z,6.35
2019-04-01T23:24:21.854Z,6.34
2019-04-01T23:26:55.742Z,6.24
2019-04-01T23:29:26.602Z,6.23
2019-04-01T23:32:02.133Z,6.16
2019-04-01T23:34:36.239Z,6.16
2019-04-01T23:37:11.760Z,6.14
2019-04-01T23:39:45.619Z,6.16
2019-04-01T23:42:22.022Z,6.08
2019-04-01T23:44:54.224Z,6.10
2019-04-01T23:47:24.966Z,6.16
2019-04-01T23:49:55.718Z,6.07
2019-04-01T23:52:26.530Z,6.08
2019-04-01T23:54:57.353Z,6.03
2019-04-01T23:57:28.165Z,6.00
2019-04-01T23:59:59.420Z,5.97
